sensor_id;sensor_type;location;lat;lon;timestamp;P1;durP1;ratioP1;P2;durP2;ratioP2
60722;SDS011;46574;52.818;6.516;2023-06-14T00:01:46;3.25;;;2.30;;
60722;SDS011;46574;52.818;6.516;2023-06-14T00:04:12;3.95;;;2.22;;
60722;SDS011;46574;52.818;6.516;2023-06-14T00:06:38;8.02;;;2.40;;
60722;SDS011;46574;52.818;6.516;2023-06-14T00:09:04;3.35;;;2.55;;
60722;SDS011;46574;52.818;6.516;2023-06-14T00:11:30;5.82;;;2.55;;
60722;SDS011;46574;52.818;6.516;2023-06-14T00:13:57;3.42;;;2.63;;
60722;SDS011;46574;52.818;6.516;2023-06-14T00:16:23;3.42;;;3.13;;
60722;SDS011;46574;52.818;6.516;2023-06-14T00:18:49;3.22;;;2.40;;
60722;SDS011;46574;52.818;6.516;2023-06-14T00:21:16;2.72;;;2.30;;
60722;SDS011;46574;52.818;6.516;2023-06-14T00:23:42;3.33;;;2.30;;
60722;SDS011;46574;52.818;6.516;2023-06-14T00:26:08;2.90;;;2.20;;
60722;SDS011;46574;52.818;6.516;2023-06-14T00:28:34;8.38;;;2.95;;
60722;SDS011;46574;52.818;6.516;2023-06-14T00:30:59;4.82;;;2.58;;
60722;SDS011;46574;52.818;6.516;2023-06-14T00:33:25;3.97;;;2.35;;
60722;SDS011;46574;52.818;6.516;2023-06-14T00:35:51;5.20;;;2.47;;
60722;SDS011;46574;52.818;6.516;2023-06-14T00:38:19;8.70;;;2.70;;
60722;SDS011;46574;52.818;6.516;2023-06-14T00:40:45;6.55;;;3.40;;
60722;SDS011;46574;52.818;6.516;2023-06-14T00:43:10;3.97;;;2.30;;
60722;SDS011;46574;52.818;6.516;2023-06-14T00:45:36;4.75;;;2.35;;
60722;SDS011;46574;52.818;6.516;2023-06-14T00:48:02;3.47;;;2.08;;
60722;SDS011;46574;52.818;6.516;2023-06-14T00:50:31;3.50;;;1.98;;
60722;SDS011;46574;52.818;6.516;2023-06-14T00:52:58;3.63;;;3.17;;
60722;SDS011;46574;52.818;6.516;2023-06-14T00:55:27;3.83;;;2.30;;
60722;SDS011;46574;52.818;6.516;2023-06-14T00:57:54;6.38;;;2.58;;
60722;SDS011;46574;52.818;6.516;2023-06-14T01:00:20;3.67;;;2.40;;
60722;SDS011;46574;52.818;6.516;2023-06-14T01:02:46;3.90;;;2.42;;
60722;SDS011;46574;52.818;6.516;2023-06-14T01:05:12;5.15;;;2.60;;
60722;SDS011;46574;52.818;6.516;2023-06-14T01:10:40;4.28;;;2.50;;
60722;SDS011;46574;52.818;6.516;2023-06-14T01:13:35;3.58;;;2.38;;
60722;SDS011;46574;52.818;6.516;2023-06-14T01:16:07;2.95;;;2.20;;
60722;SDS011;46574;52.818;6.516;2023-06-14T01:18:33;4.40;;;2.22;;
60722;SDS011;46574;52.818;6.516;2023-06-14T01:20:59;3.10;;;2.50;;
60722;SDS011;46574;52.818;6.516;2023-06-14T01:23:30;5.50;;;3.03;;
60722;SDS011;46574;52.818;6.516;2023-06-14T01:26:00;4.07;;;2.50;;
60722;SDS011;46574;52.818;6.516;2023-06-14T01:28:28;4.03;;;2.30;;
60722;SDS011;46574;52.818;6.516;2023-06-14T01:33:28;3.88;;;2.17;;
60722;SDS011;46574;52.818;6.516;2023-06-14T01:35:55;2.80;;;2.00;;
60722;SDS011;46574;52.818;6.516;2023-06-14T01:38:22;4.45;;;2.28;;
60722;SDS011;46574;52.818;6.516;2023-06-14T01:43:18;2.92;;;2.00;;
60722;SDS011;46574;52.818;6.516;2023-06-14T01:45:45;4.80;;;2.45;;
60722;SDS011;46574;52.818;6.516;2023-06-14T01:50:39;4.28;;;2.17;;
60722;SDS011;46574;52.818;6.516;2023-06-14T01:53:08;5.70;;;2.75;;
60722;SDS011;46574;52.818;6.516;2023-06-14T01:55:34;2.65;;;2.10;;
60722;SDS011;46574;52.818;6.516;2023-06-14T01:58:05;3.60;;;2.38;;
60722;SDS011;46574;52.818;6.516;2023-06-14T02:02:56;3.47;;;2.40;;
60722;SDS011;46574;52.818;6.516;2023-06-14T02:05:22;2.40;;;2.10;;
60722;SDS011;46574;52.818;6.516;2023-06-14T02:07:48;3.58;;;2.67;;
60722;SDS011;46574;52.818;6.516;2023-06-14T02:10:15;2.63;;;2.35;;
60722;SDS011;46574;52.818;6.516;2023-06-14T02:12:42;2.88;;;2.00;;
60722;SDS011;46574;52.818;6.516;2023-06-14T02:15:09;3.47;;;2.10;;
60722;SDS011;46574;52.818;6.516;2023-06-14T02:17:41;2.47;;;2.17;;
60722;SDS011;46574;52.818;6.516;2023-06-14T02:20:14;3.38;;;2.00;;
60722;SDS011;46574;52.818;6.516;2023-06-14T02:22:40;2.65;;;2.10;;
60722;SDS011;46574;52.818;6.516;2023-06-14T02:25:06;3.33;;;2.28;;
60722;SDS011;46574;52.818;6.516;2023-06-14T02:27:33;2.83;;;2.15;;
60722;SDS011;46574;52.818;6.516;2023-06-14T02:29:59;4.07;;;2.35;;
60722;SDS011;46574;52.818;6.516;2023-06-14T02:32:25;4.80;;;2.35;;
60722;SDS011;46574;52.818;6.516;2023-06-14T02:34:52;4.85;;;2.65;;
60722;SDS011;46574;52.818;6.516;2023-06-14T02:37:18;4.15;;;2.45;;
60722;SDS011;46574;52.818;6.516;2023-06-14T02:39:44;4.97;;;2.72;;
60722;SDS011;46574;52.818;6.516;2023-06-14T02:42:10;6.72;;;2.20;;
60722;SDS011;46574;52.818;6.516;2023-06-14T02:44:36;2.95;;;2.00;;
60722;SDS011;46574;52.818;6.516;2023-06-14T02:47:02;3.88;;;2.50;;
60722;SDS011;46574;52.818;6.516;2023-06-14T02:49:28;3.70;;;2.28;;
60722;SDS011;46574;52.818;6.516;2023-06-14T02:51:54;2.65;;;2.25;;
60722;SDS011;46574;52.818;6.516;2023-06-14T02:54:20;3.90;;;2.55;;
60722;SDS011;46574;52.818;6.516;2023-06-14T02:56:45;4.18;;;2.20;;
60722;SDS011;46574;52.818;6.516;2023-06-14T02:59:11;3.10;;;2.25;;
60722;SDS011;46574;52.818;6.516;2023-06-14T03:01:38;2.90;;;1.90;;
60722;SDS011;46574;52.818;6.516;2023-06-14T03:04:06;3.70;;;2.47;;
60722;SDS011;46574;52.818;6.516;2023-06-14T03:06:32;4.15;;;2.60;;
60722;SDS011;46574;52.818;6.516;2023-06-14T03:08:58;2.78;;;2.22;;
60722;SDS011;46574;52.818;6.516;2023-06-14T03:11:26;4.10;;;2.58;;
60722;SDS011;46574;52.818;6.516;2023-06-14T03:13:52;2.42;;;2.10;;
60722;SDS011;46574;52.818;6.516;2023-06-14T03:16:18;4.85;;;2.35;;
60722;SDS011;46574;52.818;6.516;2023-06-14T03:18:48;2.80;;;2.42;;
60722;SDS011;46574;52.818;6.516;2023-06-14T03:21:14;2.85;;;2.65;;
60722;SDS011;46574;52.818;6.516;2023-06-14T03:23:41;2.97;;;2.22;;
60722;SDS011;46574;52.818;6.516;2023-06-14T03:26:07;3.00;;;2.40;;
60722;SDS011;46574;52.818;6.516;2023-06-14T03:28:33;2.40;;;2.20;;
60722;SDS011;46574;52.818;6.516;2023-06-14T03:30:59;3.35;;;2.45;;
60722;SDS011;46574;52.818;6.516;2023-06-14T03:33:25;4.10;;;2.88;;
60722;SDS011;46574;52.818;6.516;2023-06-14T03:35:50;4.78;;;2.90;;
60722;SDS011;46574;52.818;6.516;2023-06-14T03:38:17;3.17;;;2.60;;
60722;SDS011;46574;52.818;6.516;2023-06-14T03:40:42;4.07;;;2.53;;
60722;SDS011;46574;52.818;6.516;2023-06-14T03:43:09;3.75;;;2.33;;
60722;SDS011;46574;52.818;6.516;2023-06-14T03:45:35;3.17;;;2.47;;
60722;SDS011;46574;52.818;6.516;2023-06-14T03:48:01;4.97;;;2.20;;
60722;SDS011;46574;52.818;6.516;2023-06-14T03:50:27;3.17;;;2.45;;
60722;SDS011;46574;52.818;6.516;2023-06-14T03:52:53;3.45;;;2.60;;
60722;SDS011;46574;52.818;6.516;2023-06-14T03:55:19;3.00;;;2.50;;
60722;SDS011;46574;52.818;6.516;2023-06-14T03:57:45;3.45;;;2.63;;
60722;SDS011;46574;52.818;6.516;2023-06-14T04:00:10;2.80;;;2.42;;
60722;SDS011;46574;52.818;6.516;2023-06-14T04:02:37;5.07;;;2.95;;
60722;SDS011;46574;52.818;6.516;2023-06-14T04:05:03;3.95;;;2.80;;
60722;SDS011;46574;52.818;6.516;2023-06-14T04:07:30;3.47;;;2.50;;
60722;SDS011;46574;52.818;6.516;2023-06-14T04:09:56;5.07;;;2.85;;
60722;SDS011;46574;52.818;6.516;2023-06-14T04:12:21;2.92;;;2.63;;
60722;SDS011;46574;52.818;6.516;2023-06-14T04:14:47;4.15;;;3.00;;
60722;SDS011;46574;52.818;6.516;2023-06-14T04:17:12;3.95;;;2.60;;
60722;SDS011;46574;52.818;6.516;2023-06-14T04:19:39;4.80;;;2.65;;
60722;SDS011;46574;52.818;6.516;2023-06-14T04:22:04;4.53;;;2.97;;
60722;SDS011;46574;52.818;6.516;2023-06-14T04:24:31;3.25;;;2.53;;
60722;SDS011;46574;52.818;6.516;2023-06-14T04:29:26;3.65;;;2.40;;
60722;SDS011;46574;52.818;6.516;2023-06-14T04:31:54;6.55;;;2.97;;
60722;SDS011;46574;52.818;6.516;2023-06-14T04:34:24;5.00;;;2.80;;
60722;SDS011;46574;52.818;6.516;2023-06-14T04:36:59;4.65;;;3.10;;
60722;SDS011;46574;52.818;6.516;2023-06-14T04:39:26;4.68;;;3.08;;
60722;SDS011;46574;52.818;6.516;2023-06-14T04:41:52;4.95;;;2.83;;
60722;SDS011;46574;52.818;6.516;2023-06-14T04:44:21;4.05;;;3.20;;
60722;SDS011;46574;52.818;6.516;2023-06-14T04:46:55;3.83;;;2.90;;
60722;SDS011;46574;52.818;6.516;2023-06-14T04:49:23;4.78;;;3.40;;
60722;SDS011;46574;52.818;6.516;2023-06-14T04:51:50;7.22;;;2.67;;
60722;SDS011;46574;52.818;6.516;2023-06-14T04:54:22;4.57;;;2.83;;
60722;SDS011;46574;52.818;6.516;2023-06-14T04:56:50;3.50;;;3.20;;
60722;SDS011;46574;52.818;6.516;2023-06-14T04:59:16;4.15;;;3.00;;
60722;SDS011;46574;52.818;6.516;2023-06-14T05:01:42;3.58;;;2.80;;
60722;SDS011;46574;52.818;6.516;2023-06-14T05:04:14;3.92;;;2.97;;
60722;SDS011;46574;52.818;6.516;2023-06-14T05:06:40;3.38;;;2.70;;
60722;SDS011;46574;52.818;6.516;2023-06-14T05:09:15;6.15;;;4.05;;
60722;SDS011;46574;52.818;6.516;2023-06-14T05:11:42;5.40;;;3.60;;
60722;SDS011;46574;52.818;6.516;2023-06-14T05:14:09;6.60;;;3.47;;
60722;SDS011;46574;52.818;6.516;2023-06-14T05:16:35;4.97;;;3.60;;
60722;SDS011;46574;52.818;6.516;2023-06-14T05:19:02;5.35;;;3.67;;
60722;SDS011;46574;52.818;6.516;2023-06-14T05:21:29;5.45;;;3.25;;
60722;SDS011;46574;52.818;6.516;2023-06-14T05:23:55;4.93;;;3.38;;
60722;SDS011;46574;52.818;6.516;2023-06-14T05:26:21;5.13;;;3.35;;
60722;SDS011;46574;52.818;6.516;2023-06-14T05:28:50;4.07;;;3.70;;
60722;SDS011;46574;52.818;6.516;2023-06-14T05:31:17;5.82;;;3.50;;
60722;SDS011;46574;52.818;6.516;2023-06-14T05:33:43;3.90;;;3.50;;
60722;SDS011;46574;52.818;6.516;2023-06-14T05:36:08;5.15;;;4.20;;
60722;SDS011;46574;52.818;6.516;2023-06-14T05:38:34;6.20;;;3.67;;
60722;SDS011;46574;52.818;6.516;2023-06-14T05:41:00;4.88;;;4.35;;
60722;SDS011;46574;52.818;6.516;2023-06-14T05:43:26;4.40;;;3.60;;
60722;SDS011;46574;52.818;6.516;2023-06-14T05:45:51;5.88;;;4.05;;
60722;SDS011;46574;52.818;6.516;2023-06-14T05:48:17;5.75;;;3.42;;
60722;SDS011;46574;52.818;6.516;2023-06-14T05:50:43;3.45;;;3.15;;
60722;SDS011;46574;52.818;6.516;2023-06-14T05:53:08;5.78;;;3.83;;
60722;SDS011;46574;52.818;6.516;2023-06-14T05:55:34;6.28;;;4.20;;
60722;SDS011;46574;52.818;6.516;2023-06-14T05:58:00;5.43;;;3.78;;
60722;SDS011;46574;52.818;6.516;2023-06-14T06:00:26;4.10;;;3.67;;
60722;SDS011;46574;52.818;6.516;2023-06-14T06:02:52;4.95;;;3.58;;
60722;SDS011;46574;52.818;6.516;2023-06-14T06:05:18;6.05;;;3.72;;
60722;SDS011;46574;52.818;6.516;2023-06-14T06:07:44;4.05;;;3.65;;
60722;SDS011;46574;52.818;6.516;2023-06-14T06:10:10;5.20;;;3.30;;
60722;SDS011;46574;52.818;6.516;2023-06-14T06:12:36;6.97;;;3.28;;
60722;SDS011;46574;52.818;6.516;2023-06-14T06:15:02;4.05;;;3.45;;
60722;SDS011;46574;52.818;6.516;2023-06-14T06:17:28;4.65;;;3.17;;
60722;SDS011;46574;52.818;6.516;2023-06-14T06:19:54;4.72;;;3.70;;
60722;SDS011;46574;52.818;6.516;2023-06-14T06:22:20;4.03;;;3.05;;
60722;SDS011;46574;52.818;6.516;2023-06-14T06:24:46;5.38;;;3.55;;
60722;SDS011;46574;52.818;6.516;2023-06-14T06:27:12;4.43;;;3.20;;
60722;SDS011;46574;52.818;6.516;2023-06-14T06:29:38;4.25;;;3.30;;
60722;SDS011;46574;52.818;6.516;2023-06-14T06:32:04;4.38;;;2.80;;
60722;SDS011;46574;52.818;6.516;2023-06-14T06:34:30;4.00;;;3.40;;
60722;SDS011;46574;52.818;6.516;2023-06-14T06:36:55;3.00;;;2.65;;
60722;SDS011;46574;52.818;6.516;2023-06-14T06:39:21;4.25;;;2.65;;
60722;SDS011;46574;52.818;6.516;2023-06-14T06:41:47;3.20;;;2.72;;
60722;SDS011;46574;52.818;6.516;2023-06-14T06:44:12;4.28;;;3.13;;
60722;SDS011;46574;52.818;6.516;2023-06-14T06:46:38;3.78;;;2.90;;
60722;SDS011;46574;52.818;6.516;2023-06-14T06:49:08;4.60;;;2.92;;
60722;SDS011;46574;52.818;6.516;2023-06-14T06:51:37;3.78;;;2.80;;
60722;SDS011;46574;52.818;6.516;2023-06-14T06:54:05;2.85;;;2.53;;
60722;SDS011;46574;52.818;6.516;2023-06-14T06:56:34;5.10;;;2.83;;
60722;SDS011;46574;52.818;6.516;2023-06-14T06:59:00;4.03;;;2.80;;
60722;SDS011;46574;52.818;6.516;2023-06-14T07:01:27;5.30;;;3.05;;
60722;SDS011;46574;52.818;6.516;2023-06-14T07:03:54;3.87;;;2.93;;
60722;SDS011;46574;52.818;6.516;2023-06-14T07:06:20;6.63;;;2.95;;
60722;SDS011;46574;52.818;6.516;2023-06-14T07:08:49;2.92;;;2.50;;
60722;SDS011;46574;52.818;6.516;2023-06-14T07:11:15;3.85;;;2.75;;
60722;SDS011;46574;52.818;6.516;2023-06-14T07:13:41;3.10;;;2.45;;
60722;SDS011;46574;52.818;6.516;2023-06-14T07:16:07;3.58;;;2.50;;
60722;SDS011;46574;52.818;6.516;2023-06-14T07:18:32;4.50;;;2.78;;
60722;SDS011;46574;52.818;6.516;2023-06-14T07:20:58;5.10;;;2.75;;
60722;SDS011;46574;52.818;6.516;2023-06-14T07:23:23;3.40;;;2.50;;
60722;SDS011;46574;52.818;6.516;2023-06-14T07:25:49;3.17;;;2.80;;
60722;SDS011;46574;52.818;6.516;2023-06-14T07:28:16;4.28;;;2.50;;
60722;SDS011;46574;52.818;6.516;2023-06-14T07:30:43;3.38;;;2.60;;
60722;SDS011;46574;52.818;6.516;2023-06-14T07:33:09;4.03;;;2.58;;
60722;SDS011;46574;52.818;6.516;2023-06-14T07:35:37;5.10;;;3.03;;
60722;SDS011;46574;52.818;6.516;2023-06-14T07:38:06;5.63;;;2.70;;
60722;SDS011;46574;52.818;6.516;2023-06-14T07:42:57;2.67;;;2.40;;
60722;SDS011;46574;52.818;6.516;2023-06-14T07:45:22;3.75;;;2.30;;
60722;SDS011;46574;52.818;6.516;2023-06-14T07:47:48;5.63;;;2.70;;
60722;SDS011;46574;52.818;6.516;2023-06-14T07:50:15;2.92;;;2.53;;
60722;SDS011;46574;52.818;6.516;2023-06-14T07:52:40;2.92;;;2.25;;
60722;SDS011;46574;52.818;6.516;2023-06-14T07:55:06;4.43;;;2.72;;
60722;SDS011;46574;52.818;6.516;2023-06-14T07:57:32;3.15;;;2.10;;
60722;SDS011;46574;52.818;6.516;2023-06-14T07:59:58;4.75;;;2.50;;
60722;SDS011;46574;52.818;6.516;2023-06-14T08:02:23;4.35;;;2.60;;
60722;SDS011;46574;52.818;6.516;2023-06-14T08:04:49;3.35;;;2.60;;
60722;SDS011;46574;52.818;6.516;2023-06-14T08:07:15;3.70;;;2.33;;
60722;SDS011;46574;52.818;6.516;2023-06-14T08:09:40;4.10;;;2.80;;
60722;SDS011;46574;52.818;6.516;2023-06-14T08:12:07;4.43;;;2.25;;
60722;SDS011;46574;52.818;6.516;2023-06-14T08:14:35;3.47;;;2.45;;
60722;SDS011;46574;52.818;6.516;2023-06-14T08:17:00;5.03;;;3.10;;
60722;SDS011;46574;52.818;6.516;2023-06-14T08:19:27;3.15;;;2.50;;
60722;SDS011;46574;52.818;6.516;2023-06-14T08:21:53;5.50;;;2.45;;
60722;SDS011;46574;52.818;6.516;2023-06-14T08:24:24;3.15;;;2.20;;
60722;SDS011;46574;52.818;6.516;2023-06-14T08:26:50;3.53;;;2.00;;
60722;SDS011;46574;52.818;6.516;2023-06-14T08:29:16;3.28;;;1.88;;
60722;SDS011;46574;52.818;6.516;2023-06-14T08:31:42;3.78;;;1.98;;
60722;SDS011;46574;52.818;6.516;2023-06-14T08:34:07;2.50;;;2.17;;
60722;SDS011;46574;52.818;6.516;2023-06-14T08:36:34;9.02;;;3.22;;
60722;SDS011;46574;52.818;6.516;2023-06-14T08:39:00;2.08;;;1.85;;
60722;SDS011;46574;52.818;6.516;2023-06-14T08:41:27;3.28;;;2.45;;
60722;SDS011;46574;52.818;6.516;2023-06-14T08:43:57;5.03;;;2.10;;
60722;SDS011;46574;52.818;6.516;2023-06-14T08:46:25;3.03;;;1.98;;
60722;SDS011;46574;52.818;6.516;2023-06-14T08:48:52;1.70;;;1.60;;
60722;SDS011;46574;52.818;6.516;2023-06-14T08:51:22;3.05;;;2.05;;
60722;SDS011;46574;52.818;6.516;2023-06-14T08:53:53;3.38;;;2.00;;
60722;SDS011;46574;52.818;6.516;2023-06-14T08:56:23;2.33;;;2.00;;
60722;SDS011;46574;52.818;6.516;2023-06-14T08:58:51;2.75;;;2.00;;
60722;SDS011;46574;52.818;6.516;2023-06-14T09:01:17;4.88;;;2.03;;
60722;SDS011;46574;52.818;6.516;2023-06-14T09:03:44;6.28;;;1.92;;
60722;SDS011;46574;52.818;6.516;2023-06-14T09:06:10;2.50;;;1.75;;
60722;SDS011;46574;52.818;6.516;2023-06-14T09:08:42;2.05;;;1.85;;
60722;SDS011;46574;52.818;6.516;2023-06-14T09:11:10;2.72;;;1.70;;
60722;SDS011;46574;52.818;6.516;2023-06-14T09:13:37;2.72;;;1.63;;
60722;SDS011;46574;52.818;6.516;2023-06-14T09:16:03;2.10;;;1.70;;
60722;SDS011;46574;52.818;6.516;2023-06-14T09:18:43;4.18;;;1.83;;
60722;SDS011;46574;52.818;6.516;2023-06-14T09:21:13;2.25;;;1.70;;
60722;SDS011;46574;52.818;6.516;2023-06-14T09:23:41;3.20;;;1.80;;
60722;SDS011;46574;52.818;6.516;2023-06-14T09:26:11;2.65;;;1.75;;
60722;SDS011;46574;52.818;6.516;2023-06-14T09:28:49;3.08;;;1.75;;
60722;SDS011;46574;52.818;6.516;2023-06-14T09:31:16;3.75;;;1.90;;
60722;SDS011;46574;52.818;6.516;2023-06-14T09:33:43;4.97;;;2.03;;
60722;SDS011;46574;52.818;6.516;2023-06-14T09:36:23;3.15;;;2.47;;
60722;SDS011;46574;52.818;6.516;2023-06-14T09:44:16;2.97;;;1.80;;
60722;SDS011;46574;52.818;6.516;2023-06-14T09:46:46;3.05;;;1.90;;
60722;SDS011;46574;52.818;6.516;2023-06-14T09:49:13;3.50;;;1.98;;
60722;SDS011;46574;52.818;6.516;2023-06-14T09:51:42;3.67;;;1.98;;
60722;SDS011;46574;52.818;6.516;2023-06-14T09:54:12;2.15;;;1.98;;
60722;SDS011;46574;52.818;6.516;2023-06-14T09:56:41;6.47;;;2.05;;
60722;SDS011;46574;52.818;6.516;2023-06-14T09:59:16;2.83;;;2.00;;
60722;SDS011;46574;52.818;6.516;2023-06-14T10:01:45;3.42;;;1.80;;
60722;SDS011;46574;52.818;6.516;2023-06-14T10:04:13;2.97;;;1.60;;
60722;SDS011;46574;52.818;6.516;2023-06-14T10:06:41;7.70;;;2.03;;
60722;SDS011;46574;52.818;6.516;2023-06-14T10:09:10;3.28;;;1.70;;
60722;SDS011;46574;52.818;6.516;2023-06-14T10:11:37;5.75;;;1.75;;
60722;SDS011;46574;52.818;6.516;2023-06-14T10:14:09;2.90;;;1.55;;
60722;SDS011;46574;52.818;6.516;2023-06-14T10:16:42;2.67;;;1.80;;
60722;SDS011;46574;52.818;6.516;2023-06-14T10:19:23;1.65;;;1.40;;
60722;SDS011;46574;52.818;6.516;2023-06-14T10:22:14;6.78;;;1.95;;
60722;SDS011;46574;52.818;6.516;2023-06-14T10:24:47;4.68;;;1.60;;
60722;SDS011;46574;52.818;6.516;2023-06-14T10:27:15;4.28;;;1.60;;
60722;SDS011;46574;52.818;6.516;2023-06-14T10:32:23;8.38;;;1.90;;
60722;SDS011;46574;52.818;6.516;2023-06-14T10:34:57;1.60;;;1.48;;
60722;SDS011;46574;52.818;6.516;2023-06-14T10:37:23;1.60;;;1.50;;
60722;SDS011;46574;52.818;6.516;2023-06-14T10:39:50;2.90;;;1.42;;
60722;SDS011;46574;52.818;6.516;2023-06-14T10:42:16;4.47;;;1.50;;
60722;SDS011;46574;52.818;6.516;2023-06-14T10:44:51;2.30;;;1.58;;
60722;SDS011;46574;52.818;6.516;2023-06-14T10:47:23;2.95;;;1.50;;
60722;SDS011;46574;52.818;6.516;2023-06-14T10:52:39;3.45;;;1.90;;
60722;SDS011;46574;52.818;6.516;2023-06-14T10:55:08;2.42;;;1.40;;
60722;SDS011;46574;52.818;6.516;2023-06-14T10:57:43;2.45;;;1.63;;
60722;SDS011;46574;52.818;6.516;2023-06-14T11:00:16;22.17;;;3.17;;
60722;SDS011;46574;52.818;6.516;2023-06-14T11:02:51;1.83;;;1.52;;
60722;SDS011;46574;52.818;6.516;2023-06-14T11:11:00;2.55;;;1.50;;
60722;SDS011;46574;52.818;6.516;2023-06-14T11:13:27;2.50;;;1.58;;
60722;SDS011;46574;52.818;6.516;2023-06-14T11:15:54;4.30;;;1.52;;
60722;SDS011;46574;52.818;6.516;2023-06-14T11:18:22;2.05;;;1.50;;
60722;SDS011;46574;52.818;6.516;2023-06-14T11:20:54;2.35;;;1.58;;
60722;SDS011;46574;52.818;6.516;2023-06-14T11:23:21;4.43;;;2.30;;
60722;SDS011;46574;52.818;6.516;2023-06-14T11:25:56;2.05;;;1.40;;
60722;SDS011;46574;52.818;6.516;2023-06-14T11:28:24;2.13;;;1.70;;
60722;SDS011;46574;52.818;6.516;2023-06-14T11:31:06;4.00;;;1.55;;
60722;SDS011;46574;52.818;6.516;2023-06-14T11:33:33;6.25;;;1.50;;
60722;SDS011;46574;52.818;6.516;2023-06-14T11:36:01;1.92;;;1.60;;
60722;SDS011;46574;52.818;6.516;2023-06-14T11:38:30;3.17;;;1.67;;
60722;SDS011;46574;52.818;6.516;2023-06-14T11:41:00;2.80;;;1.60;;
60722;SDS011;46574;52.818;6.516;2023-06-14T11:43:25;1.73;;;1.63;;
60722;SDS011;46574;52.818;6.516;2023-06-14T11:45:52;1.63;;;1.52;;
60722;SDS011;46574;52.818;6.516;2023-06-14T11:48:18;3.42;;;1.60;;
60722;SDS011;46574;52.818;6.516;2023-06-14T11:50:44;3.33;;;2.13;;
60722;SDS011;46574;52.818;6.516;2023-06-14T11:53:09;2.95;;;1.52;;
60722;SDS011;46574;52.818;6.516;2023-06-14T11:55:37;4.75;;;1.85;;
60722;SDS011;46574;52.818;6.516;2023-06-14T11:58:04;2.67;;;1.33;;
60722;SDS011;46574;52.818;6.516;2023-06-14T12:00:35;4.20;;;1.50;;
60722;SDS011;46574;52.818;6.516;2023-06-14T12:05:28;3.50;;;1.48;;
60722;SDS011;46574;52.818;6.516;2023-06-14T12:08:00;1.38;;;1.27;;
60722;SDS011;46574;52.818;6.516;2023-06-14T12:10:39;4.63;;;1.90;;
60722;SDS011;46574;52.818;6.516;2023-06-14T12:13:08;2.47;;;1.73;;
60722;SDS011;46574;52.818;6.516;2023-06-14T12:15:36;1.73;;;1.17;;
60722;SDS011;46574;52.818;6.516;2023-06-14T12:18:05;4.43;;;1.73;;
60722;SDS011;46574;52.818;6.516;2023-06-14T12:20:34;4.07;;;1.40;;
60722;SDS011;46574;52.818;6.516;2023-06-14T12:23:02;3.40;;;1.30;;
60722;SDS011;46574;52.818;6.516;2023-06-14T12:25:33;5.90;;;1.45;;
60722;SDS011;46574;52.818;6.516;2023-06-14T12:28:04;1.42;;;1.20;;
60722;SDS011;46574;52.818;6.516;2023-06-14T12:30:34;3.45;;;1.58;;
60722;SDS011;46574;52.818;6.516;2023-06-14T12:33:03;2.03;;;1.30;;
60722;SDS011;46574;52.818;6.516;2023-06-14T12:35:29;3.45;;;1.50;;
60722;SDS011;46574;52.818;6.516;2023-06-14T12:37:55;2.20;;;1.50;;
60722;SDS011;46574;52.818;6.516;2023-06-14T12:40:21;2.17;;;1.35;;
60722;SDS011;46574;52.818;6.516;2023-06-14T12:42:47;2.13;;;1.30;;
60722;SDS011;46574;52.818;6.516;2023-06-14T12:45:13;2.20;;;1.27;;
60722;SDS011;46574;52.818;6.516;2023-06-14T12:47:39;2.17;;;1.48;;
60722;SDS011;46574;52.818;6.516;2023-06-14T12:50:05;1.90;;;1.23;;
60722;SDS011;46574;52.818;6.516;2023-06-14T12:52:31;1.60;;;1.35;;
60722;SDS011;46574;52.818;6.516;2023-06-14T12:55:01;5.57;;;1.70;;
60722;SDS011;46574;52.818;6.516;2023-06-14T12:57:29;1.77;;;1.55;;
60722;SDS011;46574;52.818;6.516;2023-06-14T12:59:55;1.88;;;1.33;;
60722;SDS011;46574;52.818;6.516;2023-06-14T13:02:21;1.75;;;1.17;;
60722;SDS011;46574;52.818;6.516;2023-06-14T13:04:50;4.03;;;1.48;;
60722;SDS011;46574;52.818;6.516;2023-06-14T13:07:16;3.60;;;1.45;;
60722;SDS011;46574;52.818;6.516;2023-06-14T13:09:42;2.20;;;1.30;;
60722;SDS011;46574;52.818;6.516;2023-06-14T13:12:09;7.85;;;2.42;;
60722;SDS011;46574;52.818;6.516;2023-06-14T13:14:36;2.17;;;1.45;;
60722;SDS011;46574;52.818;6.516;2023-06-14T13:17:02;2.60;;;1.73;;
60722;SDS011;46574;52.818;6.516;2023-06-14T13:19:28;2.05;;;1.83;;
60722;SDS011;46574;52.818;6.516;2023-06-14T13:21:54;2.85;;;1.48;;
60722;SDS011;46574;52.818;6.516;2023-06-14T13:24:19;2.80;;;1.70;;
60722;SDS011;46574;52.818;6.516;2023-06-14T13:26:45;6.88;;;1.80;;
60722;SDS011;46574;52.818;6.516;2023-06-14T13:29:11;2.42;;;1.70;;
60722;SDS011;46574;52.818;6.516;2023-06-14T13:31:37;1.85;;;1.50;;
60722;SDS011;46574;52.818;6.516;2023-06-14T13:34:02;1.58;;;1.42;;
60722;SDS011;46574;52.818;6.516;2023-06-14T13:36:29;3.53;;;1.70;;
60722;SDS011;46574;52.818;6.516;2023-06-14T13:38:55;3.22;;;1.90;;
60722;SDS011;46574;52.818;6.516;2023-06-14T13:41:21;2.90;;;1.83;;
60722;SDS011;46574;52.818;6.516;2023-06-14T13:43:46;2.65;;;1.80;;
60722;SDS011;46574;52.818;6.516;2023-06-14T13:46:12;5.97;;;1.90;;
60722;SDS011;46574;52.818;6.516;2023-06-14T13:48:38;11.55;;;2.35;;
60722;SDS011;46574;52.818;6.516;2023-06-14T13:51:03;2.72;;;1.58;;
60722;SDS011;46574;52.818;6.516;2023-06-14T13:53:30;1.90;;;1.80;;
60722;SDS011;46574;52.818;6.516;2023-06-14T13:55:59;3.53;;;1.80;;
60722;SDS011;46574;52.818;6.516;2023-06-14T13:58:26;2.15;;;1.50;;
60722;SDS011;46574;52.818;6.516;2023-06-14T14:00:52;2.25;;;1.67;;
60722;SDS011;46574;52.818;6.516;2023-06-14T14:03:18;2.38;;;1.67;;
60722;SDS011;46574;52.818;6.516;2023-06-14T14:05:44;3.75;;;1.90;;
60722;SDS011;46574;52.818;6.516;2023-06-14T14:08:10;20.15;;;3.17;;
60722;SDS011;46574;52.818;6.516;2023-06-14T14:10:36;2.00;;;1.50;;
60722;SDS011;46574;52.818;6.516;2023-06-14T14:13:02;1.80;;;1.70;;
60722;SDS011;46574;52.818;6.516;2023-06-14T14:15:27;1.63;;;1.42;;
60722;SDS011;46574;52.818;6.516;2023-06-14T14:17:53;3.50;;;2.00;;
60722;SDS011;46574;52.818;6.516;2023-06-14T14:20:22;3.13;;;1.80;;
60722;SDS011;46574;52.818;6.516;2023-06-14T14:22:48;2.22;;;1.60;;
60722;SDS011;46574;52.818;6.516;2023-06-14T14:25:14;2.00;;;1.80;;
60722;SDS011;46574;52.818;6.516;2023-06-14T14:27:39;2.92;;;1.75;;
60722;SDS011;46574;52.818;6.516;2023-06-14T14:30:05;2.90;;;1.90;;
60722;SDS011;46574;52.818;6.516;2023-06-14T14:32:31;2.28;;;1.58;;
60722;SDS011;46574;52.818;6.516;2023-06-14T14:34:57;2.10;;;1.63;;
60722;SDS011;46574;52.818;6.516;2023-06-14T14:37:23;2.67;;;1.90;;
60722;SDS011;46574;52.818;6.516;2023-06-14T14:39:48;1.70;;;1.58;;
60722;SDS011;46574;52.818;6.516;2023-06-14T14:42:14;2.33;;;1.67;;
60722;SDS011;46574;52.818;6.516;2023-06-14T14:44:40;1.73;;;1.63;;
60722;SDS011;46574;52.818;6.516;2023-06-14T14:47:05;2.88;;;1.50;;
60722;SDS011;46574;52.818;6.516;2023-06-14T14:49:31;1.73;;;1.42;;
60722;SDS011;46574;52.818;6.516;2023-06-14T14:51:57;2.00;;;1.83;;
60722;SDS011;46574;52.818;6.516;2023-06-14T14:54:23;1.63;;;1.50;;
60722;SDS011;46574;52.818;6.516;2023-06-14T14:56:50;1.45;;;1.35;;
60722;SDS011;46574;52.818;6.516;2023-06-14T14:59:16;2.17;;;1.98;;
60722;SDS011;46574;52.818;6.516;2023-06-14T15:01:43;1.60;;;1.45;;
60722;SDS011;46574;52.818;6.516;2023-06-14T15:04:10;4.45;;;2.10;;
60722;SDS011;46574;52.818;6.516;2023-06-14T15:06:36;3.03;;;1.73;;
60722;SDS011;46574;52.818;6.516;2023-06-14T15:09:04;2.10;;;1.70;;
60722;SDS011;46574;52.818;6.516;2023-06-14T15:11:30;3.80;;;1.85;;
60722;SDS011;46574;52.818;6.516;2023-06-14T15:13:56;1.63;;;1.52;;
60722;SDS011;46574;52.818;6.516;2023-06-14T15:16:22;1.90;;;1.80;;
60722;SDS011;46574;52.818;6.516;2023-06-14T15:18:47;1.60;;;1.50;;
60722;SDS011;46574;52.818;6.516;2023-06-14T15:21:13;2.75;;;1.58;;
60722;SDS011;46574;52.818;6.516;2023-06-14T15:23:38;1.40;;;1.30;;
60722;SDS011;46574;52.818;6.516;2023-06-14T15:26:04;3.25;;;1.50;;